Time;durP1;ratioP1;P1;durP2;ratioP2;P2;SDS_P1;SDS_P2;PMS_P1;PMS_P2;Temp;Humidity;BMP_temperature;BMP_pressure;BME280_temperature;BME280_humidity;BME280_pressure;Samples;Min_cycle;Max_cycle;Signal;HPM_P1;HPM_P2
2021/12/15 00:01:15;;;;;;;;;;;9.40;99.20;;;;;;5097672;28;19939;-79
2021/12/15 00:03:41;;;;;;;;;;;9.40;99.20;;;;;;5114674;28;20029;-78
2021/12/15 00:06:12;;;;;;;;;;;9.40;99.10;;;;;;5098029;28;19920;-78
2021/12/15 00:08:38;;;;;;;;;;;9.40;99.20;;;;;;5114718;28;19915;-78
2021/12/15 00:11:04;;;;;;;;;;;9.40;99.20;;;;;;5114491;28;19919;-79
2021/12/15 00:13:31;;;;;;;;;;;9.40;99.10;;;;;;5114589;28;19923;-77
2021/12/15 00:15:57;;;;;;;;;;;9.40;99.20;;;;;;5114819;28;20322;-79
2021/12/15 00:18:22;;;;;;;;;;;9.40;99.20;;;;;;5114541;28;19919;-78
2021/12/15 00:20:48;;;;;;;;;;;9.40;99.10;;;;;;5114778;28;19964;-78
2021/12/15 00:23:14;;;;;;;;;;;9.40;99.20;;;;;;5097277;28;20378;-78
2021/12/15 00:25:41;;;;;;;;;;;9.50;99.10;;;;;;5114244;28;20006;-78
2021/12/15 00:28:06;;;;;;;;;;;9.50;99.10;;;;;;5114478;28;19919;-78
2021/12/15 00:30:33;;;;;;;;;;;9.50;99.00;;;;;;5114423;28;19964;-78
2021/12/15 00:32:58;;;;;;;;;;;9.50;99.00;;;;;;5114191;28;20010;-78
2021/12/15 00:35:24;;;;;;;;;;;9.50;99.00;;;;;;5113797;28;20351;-78
2021/12/15 00:37:50;;;;;;;;;;;9.50;99.00;;;;;;5114441;28;19958;-78
2021/12/15 00:40:17;;;;;;;;;;;9.50;99.00;;;;;;5113999;28;20287;-78
2021/12/15 00:42:43;;;;;;;;;;;9.50;99.10;;;;;;5113795;28;19920;-78
2021/12/15 00:45:12;;;;;;;;;;;9.50;99.10;;;;;;5114264;28;19917;-79
2021/12/15 00:47:38;;;;;;;;;;;9.50;99.00;;;;;;5096857;28;20002;-78
2021/12/15 00:50:06;;;;;;;;;;;9.50;99.10;;;;;;5097156;28;19922;-78
2021/12/15 00:52:42;;;;;;;;;;;9.50;99.00;;;;;;5113976;28;19937;-78
2021/12/15 00:55:08;;;;;;;;;;;9.50;99.00;;;;;;5096817;28;19922;-78
2021/12/15 00:57:34;;;;;;;;;;;9.50;99.00;;;;;;5096894;28;19915;-78
2021/12/15 01:00:00;;;;;;;;;;;9.50;99.00;;;;;;5113967;28;19970;-78
2021/12/15 01:02:26;;;;;;;;;;;9.50;99.00;;;;;;5113089;28;20364;-78
2021/12/15 01:04:52;;;;;;;;;;;9.50;99.00;;;;;;5113541;28;19951;-79
2021/12/15 01:07:18;;;;;;;;;;;9.50;99.00;;;;;;5113472;28;19963;-78
2021/12/15 01:09:48;;;;;;;;;;;9.50;99.10;;;;;;5113423;28;20325;-78
2021/12/15 01:12:43;;;;;;;;;;;9.50;99.00;;;;;;5113356;28;19915;-78
2021/12/15 01:20:48;;;;;;;;;;;9.50;99.10;;;;;;5113154;28;20010;-78
2021/12/15 01:23:16;;;;;;;;;;;9.50;99.10;;;;;;5096213;28;19920;-78
2021/12/15 01:25:53;;;;;;;;;;;9.60;99.10;;;;;;5113501;28;19969;-78
2021/12/15 01:28:19;;;;;;;;;;;9.60;99.00;;;;;;5108523;28;20006;-78
2021/12/15 01:30:46;;;;;;;;;;;9.60;99.00;;;;;;5096071;28;19998;-78
2021/12/15 01:33:12;;;;;;;;;;;9.60;99.00;;;;;;5113372;28;19920;-78
2021/12/15 01:35:39;;;;;;;;;;;9.50;99.00;;;;;;5112832;28;19972;-78
2021/12/15 01:38:05;;;;;;;;;;;9.50;99.00;;;;;;5113336;28;19939;-78
2021/12/15 01:40:37;;;;;;;;;;;9.60;99.00;;;;;;5112882;28;20367;-77
2021/12/15 01:43:05;;;;;;;;;;;9.50;99.00;;;;;;5095872;28;19926;-78
2021/12/15 01:48:15;;;;;;;;;;;9.50;99.00;;;;;;5112837;28;20001;-79
2021/12/15 01:50:41;;;;;;;;;;;9.60;99.00;;;;;;5113056;28;19920;-78
2021/12/15 01:53:08;;;;;;;;;;;9.50;98.90;;;;;;5096068;28;19945;-78
2021/12/15 01:55:33;;;;;;;;;;;9.50;98.90;;;;;;5112750;28;19916;-78
2021/12/15 01:57:59;;;;;;;;;;;9.50;98.90;;;;;;5095703;28;19916;-78
2021/12/15 02:00:37;;;;;;;;;;;9.50;98.90;;;;;;5096053;28;19954;-78
2021/12/15 02:03:02;;;;;;;;;;;9.50;98.90;;;;;;5095658;28;19973;-78
2021/12/15 02:05:29;;;;;;;;;;;9.50;98.90;;;;;;5112617;28;19916;-78
2021/12/15 02:07:55;;;;;;;;;;;9.50;98.90;;;;;;5095576;28;19941;-78
2021/12/15 02:10:23;;;;;;;;;;;9.50;99.00;;;;;;5112579;28;20019;-78
2021/12/15 02:12:50;;;;;;;;;;;9.50;99.00;;;;;;5095582;28;19923;-78
2021/12/15 02:15:17;;;;;;;;;;;9.50;98.90;;;;;;5116785;28;20371;-79
2021/12/15 02:17:44;;;;;;;;;;;9.50;98.90;;;;;;5117107;28;19980;-78
2021/12/15 02:20:11;;;;;;;;;;;9.50;98.90;;;;;;5099767;28;19916;-78
2021/12/15 02:22:37;;;;;;;;;;;9.50;98.90;;;;;;5116521;28;20379;-79
2021/12/15 02:25:06;;;;;;;;;;;9.50;98.90;;;;;;5116991;28;19915;-78
2021/12/15 02:27:34;;;;;;;;;;;9.50;98.90;;;;;;5116614;28;19923;-78
2021/12/15 02:30:17;;;;;;;;;;;9.50;98.90;;;;;;5116614;28;20476;-78
2021/12/15 02:38:18;;;;;;;;;;;9.50;98.80;;;;;;5102040;28;19922;-78
2021/12/15 02:40:45;;;;;;;;;;;9.50;98.80;;;;;;5116331;28;19915;-78
2021/12/15 02:43:11;;;;;;;;;;;9.50;98.80;;;;;;5116224;28;19919;-78
2021/12/15 02:45:37;;;;;;;;;;;9.40;98.80;;;;;;5116215;28;19923;-78
2021/12/15 02:48:02;;;;;;;;;;;9.50;98.80;;;;;;5116221;28;20015;-78
2021/12/15 02:50:29;;;;;;;;;;;9.40;98.70;;;;;;5116159;28;19923;-78
2021/12/15 02:52:58;;;;;;;;;;;9.30;98.80;;;;;;5116136;28;19915;-78
2021/12/15 02:55:24;;;;;;;;;;;9.30;98.70;;;;;;5116787;28;19923;-78
2021/12/15 02:57:50;;;;;;;;;;;9.20;98.70;;;;;;5098973;28;19922;-78
2021/12/15 03:00:19;;;;;;;;;;;9.20;98.70;;;;;;5099024;28;19916;-78
2021/12/15 03:05:49;;;;;;;;;;;9.20;98.80;;;;;;5115869;28;19937;-78
2021/12/15 03:08:22;;;;;;;;;;;9.10;98.80;;;;;;5100737;28;19977;-78
2021/12/15 03:16:20;;;;;;;;;;;9.10;98.90;;;;;;5115726;28;19921;-78
2021/12/15 03:18:46;;;;;;;;;;;9.20;99.00;;;;;;5115589;28;19920;-78
2021/12/15 03:21:17;;;;;;;;;;;9.20;98.90;;;;;;5115466;28;19920;-78
2021/12/15 03:23:50;;;;;;;;;;;9.20;98.90;;;;;;5098809;28;20306;-78
2021/12/15 03:26:18;;;;;;;;;;;9.20;98.90;;;;;;5115815;28;20283;-78
2021/12/15 03:34:36;;;;;;;;;;;9.30;98.80;;;;;;5115694;28;19962;-78
2021/12/15 03:39:31;;;;;;;;;;;9.30;98.70;;;;;;5115487;28;19976;-78
2021/12/15 03:42:05;;;;;;;;;;;9.30;98.60;;;;;;5115076;28;19924;-78
2021/12/15 03:44:32;;;;;;;;;;;9.30;98.80;;;;;;5115476;28;19915;-79
2021/12/15 03:46:58;;;;;;;;;;;9.30;98.80;;;;;;5115048;28;19916;-78
2021/12/15 03:49:24;;;;;;;;;;;9.30;98.80;;;;;;5115098;28;19916;-78
2021/12/15 03:51:50;;;;;;;;;;;9.30;98.90;;;;;;5098210;28;20002;-78
2021/12/15 03:54:17;;;;;;;;;;;9.30;98.80;;;;;;5114967;28;19915;-78
2021/12/15 03:56:44;;;;;;;;;;;9.30;98.90;;;;;;5114929;28;19916;-78
2021/12/15 03:59:09;;;;;;;;;;;9.30;98.80;;;;;;5115132;28;20359;-78
2021/12/15 04:01:35;;;;;;;;;;;9.30;98.80;;;;;;5097635;28;19927;-78
2021/12/15 04:04:01;;;;;;;;;;;9.30;98.80;;;;;;5114782;28;19916;-78
2021/12/15 04:06:28;;;;;;;;;;;9.30;98.70;;;;;;5114998;28;20290;-78
2021/12/15 04:08:55;;;;;;;;;;;9.30;98.80;;;;;;5114637;28;19920;-78
2021/12/15 04:11:22;;;;;;;;;;;9.20;98.90;;;;;;5114853;28;20313;-78
2021/12/15 04:13:48;;;;;;;;;;;9.20;98.80;;;;;;5114875;28;19962;-78
2021/12/15 04:16:39;;;;;;;;;;;9.30;98.80;;;;;;5097506;28;20002;-78
2021/12/15 04:19:03;;;;;;;;;;;9.10;98.80;;;;;;5114894;28;19919;-78
2021/12/15 04:21:29;;;;;;;;;;;9.10;98.80;;;;;;5114354;28;19930;-78
2021/12/15 04:23:55;;;;;;;;;;;9.10;98.90;;;;;;5114382;28;19922;-78
2021/12/15 04:26:21;;;;;;;;;;;9.10;98.90;;;;;;5114649;28;19923;-78
2021/12/15 04:28:47;;;;;;;;;;;9.10;98.90;;;;;;5097579;28;19919;-77
2021/12/15 04:31:15;;;;;;;;;;;9.00;98.80;;;;;;5097252;28;19919;-78
2021/12/15 04:33:49;;;;;;;;;;;9.00;98.90;;;;;;5097118;28;19941;-78
2021/12/15 04:36:14;;;;;;;;;;;9.00;98.80;;;;;;5113252;28;20050;-78
2021/12/15 04:38:41;;;;;;;;;;;9.00;98.90;;;;;;5114017;28;19969;-78
2021/12/15 04:41:08;;;;;;;;;;;9.00;98.90;;;;;;5114310;28;19962;-77
2021/12/15 04:43:35;;;;;;;;;;;9.00;98.90;;;;;;5113944;28;20002;-78
2021/12/15 04:46:03;;;;;;;;;;;9.00;98.80;;;;;;5113930;28;20375;-77
2021/12/15 04:48:28;;;;;;;;;;;9.00;98.90;;;;;;5096848;28;19915;-78
2021/12/15 04:50:54;;;;;;;;;;;9.00;98.90;;;;;;5113819;28;19916;-77
2021/12/15 04:53:20;;;;;;;;;;;9.00;98.90;;;;;;5114123;28;19924;-78
2021/12/15 04:55:46;;;;;;;;;;;9.00;99.00;;;;;;5113785;28;20363;-78
2021/12/15 04:58:12;;;;;;;;;;;9.00;99.00;;;;;;5114057;28;20009;-78
2021/12/15 05:00:44;;;;;;;;;;;9.00;98.90;;;;;;5113556;28;20402;-78
2021/12/15 05:03:10;;;;;;;;;;;9.00;98.90;;;;;;5113502;28;20421;-78
2021/12/15 05:05:37;;;;;;;;;;;9.00;98.90;;;;;;5096609;28;19922;-77
2021/12/15 05:08:03;;;;;;;;;;;9.00;99.00;;;;;;5113739;28;20341;-78
2021/12/15 05:10:29;;;;;;;;;;;9.00;98.90;;;;;;5113480;28;20371;-78
2021/12/15 05:12:55;;;;;;;;;;;9.10;98.90;;;;;;5113435;28;19922;-78
2021/12/15 05:15:21;;;;;;;;;;;9.10;99.00;;;;;;5096381;28;19916;-78
2021/12/15 05:17:46;;;;;;;;;;;9.10;98.90;;;;;;5113857;28;19975;-78
2021/12/15 05:20:12;;;;;;;;;;;9.20;98.80;;;;;;5113272;28;19940;-78
2021/12/15 05:22:38;;;;;;;;;;;9.20;98.70;;;;;;5096189;28;20005;-78
2021/12/15 05:25:04;;;;;;;;;;;9.30;98.70;;;;;;5113302;28;19916;-78
2021/12/15 05:27:30;;;;;;;;;;;9.20;98.70;;;;;;5113454;28;19984;-78
2021/12/15 05:29:57;;;;;;;;;;;9.30;98.70;;;;;;5096343;28;20430;-78
2021/12/15 05:32:23;;;;;;;;;;;9.20;98.80;;;;;;5113006;28;20002;-78
2021/12/15 05:34:54;;;;;;;;;;;9.30;98.70;;;;;;5113033;28;19916;-79
2021/12/15 05:37:22;;;;;;;;;;;9.20;98.80;;;;;;5095754;28;19919;-78
2021/12/15 05:39:48;;;;;;;;;;;9.20;98.80;;;;;;5096137;28;19946;-79
2021/12/15 05:42:13;;;;;;;;;;;9.30;98.80;;;;;;5095828;28;19927;-79
2021/12/15 05:44:39;;;;;;;;;;;9.20;98.70;;;;;;5112852;28;19916;-79
2021/12/15 05:47:11;;;;;;;;;;;9.20;98.80;;;;;;5112843;28;19916;-79
2021/12/15 05:49:37;;;;;;;;;;;9.20;98.80;;;;;;5112795;28;19919;-79
2021/12/15 05:52:03;;;;;;;;;;;9.30;98.90;;;;;;5112720;28;20401;-80
2021/12/15 05:54:29;;;;;;;;;;;9.20;98.90;;;;;;5095766;28;19915;-79
2021/12/15 05:56:55;;;;;;;;;;;9.20;98.90;;;;;;5096031;28;19962;-78
2021/12/15 05:59:21;;;;;;;;;;;9.20;98.90;;;;;;5112664;28;19916;-79
2021/12/15 06:01:47;;;;;;;;;;;9.30;98.80;;;;;;5112509;28;19924;-79
2021/12/15 06:04:13;;;;;;;;;;;9.30;98.80;;;;;;5112699;28;19920;-78
2021/12/15 06:06:39;;;;;;;;;;;9.30;98.90;;;;;;5112967;28;19965;-79
2021/12/15 06:09:06;;;;;;;;;;;9.30;98.90;;;;;;5095934;28;20064;-79
2021/12/15 06:11:32;;;;;;;;;;;9.30;98.90;;;;;;5112436;28;20481;-79
2021/12/15 06:13:58;;;;;;;;;;;9.30;98.90;;;;;;5095914;28;20313;-79
2021/12/15 06:16:23;;;;;;;;;;;9.30;98.90;;;;;;5095661;28;19916;-79
2021/12/15 06:18:50;;;;;;;;;;;9.30;98.90;;;;;;5112426;28;19915;-78
2021/12/15 06:21:17;;;;;;;;;;;9.30;99.00;;;;;;5112782;28;19919;-79
2021/12/15 06:23:43;;;;;;;;;;;9.30;98.80;;;;;;5111702;28;19923;-79
2021/12/15 06:26:09;;;;;;;;;;;9.30;98.90;;;;;;5095189;28;20305;-79
2021/12/15 06:28:35;;;;;;;;;;;9.30;98.80;;;;;;5096029;28;19917;-79
2021/12/15 06:31:01;;;;;;;;;;;9.30;98.90;;;;;;5113089;28;19915;-79
2021/12/15 06:33:28;;;;;;;;;;;9.30;98.90;;;;;;5096037;28;20386;-80
2021/12/15 06:35:57;;;;;;;;;;;9.30;98.90;;;;;;5112717;28;20002;-79
2021/12/15 06:38:27;;;;;;;;;;;9.40;98.90;;;;;;5112389;28;20424;-79
2021/12/15 06:40:53;;;;;;;;;;;9.40;98.90;;;;;;5112975;28;20310;-78
2021/12/15 06:43:20;;;;;;;;;;;9.40;98.90;;;;;;5095726;28;19919;-79
2021/12/15 06:46:05;;;;;;;;;;;9.40;98.90;;;;;;5112794;28;19916;-79
2021/12/15 06:59:28;;;;;;;;;;;9.50;98.80;;;;;;5113634;28;19923;-78
2021/12/15 07:01:54;;;;;;;;;;;9.50;98.70;;;;;;5116561;28;19919;-78
2021/12/15 07:04:21;;;;;;;;;;;9.50;98.80;;;;;;5116891;28;19922;-78
2021/12/15 07:06:47;;;;;;;;;;;9.50;98.70;;;;;;5099375;28;19915;-78
2021/12/15 07:09:13;;;;;;;;;;;9.60;98.60;;;;;;5099161;28;20367;-80
2021/12/15 07:11:39;;;;;;;;;;;9.50;98.60;;;;;;5082142;28;19961;-79
2021/12/15 07:14:04;;;;;;;;;;;9.50;98.70;;;;;;5097716;28;20006;-78
2021/12/15 07:16:32;;;;;;;;;;;9.50;98.70;;;;;;5098753;28;20328;-79
2021/12/15 07:19:15;;;;;;;;;;;9.50;98.70;;;;;;5115906;28;19992;-78
2021/12/15 07:21:51;;;;;;;;;;;9.50;98.70;;;;;;5101329;27;20010;-78
2021/12/15 07:24:17;;;;;;;;;;;9.40;98.70;;;;;;5118245;27;20160;-80
2021/12/15 07:26:42;;;;;;;;;;;9.50;98.70;;;;;;5121274;27;20004;-81
2021/12/15 07:29:08;;;;;;;;;;;9.50;98.60;;;;;;5100721;27;20268;-79
2021/12/15 07:31:33;;;;;;;;;;;9.50;98.60;;;;;;5118147;27;19920;-81
2021/12/15 07:33:59;;;;;;;;;;;9.50;98.60;;;;;;5105049;27;19988;-80
2021/12/15 07:36:25;;;;;;;;;;;9.50;98.50;;;;;;5119659;27;19949;-79
2021/12/15 07:38:50;;;;;;;;;;;9.50;98.50;;;;;;5108059;27;20029;-80
2021/12/15 07:41:27;;;;;;;;;;;9.50;98.50;;;;;;5118394;27;19929;-79
2021/12/15 07:43:54;;;;;;;;;;;9.40;98.50;;;;;;5116536;27;20385;-80
2021/12/15 07:46:19;;;;;;;;;;;9.40;98.40;;;;;;5105656;27;19922;-80
2021/12/15 07:48:45;;;;;;;;;;;9.40;98.50;;;;;;5105594;27;19919;-80
2021/12/15 07:51:12;;;;;;;;;;;9.40;98.30;;;;;;5080785;27;20392;-79
2021/12/15 07:53:38;;;;;;;;;;;9.40;98.30;;;;;;5117066;27;19983;-79
2021/12/15 07:56:05;;;;;;;;;;;9.40;98.40;;;;;;5100136;27;20011;-79
2021/12/15 07:58:30;;;;;;;;;;;9.30;98.20;;;;;;5100999;27;20280;-79
2021/12/15 08:00:59;;;;;;;;;;;9.30;98.40;;;;;;5114062;27;20048;-79
2021/12/15 08:03:25;;;;;;;;;;;9.40;98.30;;;;;;5113280;28;19919;-79
2021/12/15 08:05:51;;;;;;;;;;;9.30;98.20;;;;;;5097128;28;19916;-79
2021/12/15 08:08:17;;;;;;;;;;;9.30;98.40;;;;;;5097246;28;19920;-79
2021/12/15 08:10:43;;;;;;;;;;;9.30;98.30;;;;;;5096909;28;19926;-79
2021/12/15 08:13:10;;;;;;;;;;;9.30;98.30;;;;;;5114710;28;19923;-79
2021/12/15 08:15:36;;;;;;;;;;;9.30;98.30;;;;;;5114913;28;20322;-79
2021/12/15 08:18:01;;;;;;;;;;;9.30;98.20;;;;;;5114357;28;19916;-78
2021/12/15 08:20:29;;;;;;;;;;;9.30;98.20;;;;;;5114794;28;19970;-80
2021/12/15 08:22:54;;;;;;;;;;;9.30;98.30;;;;;;5114265;28;19962;-79
2021/12/15 08:25:20;;;;;;;;;;;9.20;98.20;;;;;;5080490;28;20346;-78
2021/12/15 08:27:46;;;;;;;;;;;9.30;98.20;;;;;;5114366;28;19915;-80
2021/12/15 08:30:20;;;;;;;;;;;9.30;98.20;;;;;;5114080;28;19920;-79
2021/12/15 08:32:47;;;;;;;;;;;9.30;98.20;;;;;;5114294;28;20356;-79
2021/12/15 08:35:15;;;;;;;;;;;9.20;98.10;;;;;;5114145;28;19958;-79
2021/12/15 08:37:40;;;;;;;;;;;9.20;98.10;;;;;;5113908;28;19919;-79
2021/12/15 08:40:06;;;;;;;;;;;9.10;98.30;;;;;;5114070;28;19916;-79
2021/12/15 08:42:32;;;;;;;;;;;9.10;98.30;;;;;;5096873;28;19926;-79
2021/12/15 08:44:58;;;;;;;;;;;9.10;98.30;;;;;;5114325;28;20010;-79
2021/12/15 08:47:23;;;;;;;;;;;9.10;98.30;;;;;;5113797;28;20442;-79
2021/12/15 08:49:49;;;;;;;;;;;9.10;98.30;;;;;;5096830;28;19916;-80
2021/12/15 08:52:14;;;;;;;;;;;9.10;98.30;;;;;;5113833;28;20337;-79
2021/12/15 08:54:40;;;;;;;;;;;9.20;98.40;;;;;;5097114;28;19924;-79
2021/12/15 08:57:05;;;;;;;;;;;9.10;98.30;;;;;;5113760;28;20375;-79
2021/12/15 08:59:31;;;;;;;;;;;9.10;98.30;;;;;;5113813;28;19916;-79
2021/12/15 09:01:57;;;;;;;;;;;9.20;98.30;;;;;;5113591;28;20286;-80
2021/12/15 09:04:22;;;;;;;;;;;9.10;98.30;;;;;;5096682;28;19969;-79
2021/12/15 09:06:48;;;;;;;;;;;9.10;98.40;;;;;;5113392;28;19923;-79
2021/12/15 09:09:15;;;;;;;;;;;9.20;98.40;;;;;;5097040;28;19993;-80
2021/12/15 09:11:40;;;;;;;;;;;9.20;98.40;;;;;;5113190;28;19960;-79
2021/12/15 09:14:06;;;;;;;;;;;9.30;98.30;;;;;;5079496;28;19999;-79
2021/12/15 09:16:32;;;;;;;;;;;9.30;98.20;;;;;;5079546;28;20012;-79
2021/12/15 09:18:59;;;;;;;;;;;9.20;98.20;;;;;;5096561;28;19916;-80
2021/12/15 09:21:27;;;;;;;;;;;9.30;98.30;;;;;;5114258;28;19969;-79
2021/12/15 09:23:52;;;;;;;;;;;9.30;98.20;;;;;;5113674;28;19915;-79
2021/12/15 09:26:20;;;;;;;;;;;9.30;98.10;;;;;;5113755;28;20014;-80
2021/12/15 09:28:46;;;;;;;;;;;9.30;98.20;;;;;;5113503;28;19916;-79
2021/12/15 09:31:15;;;;;;;;;;;9.40;98.00;;;;;;5114079;28;19920;-80
2021/12/15 09:33:42;;;;;;;;;;;9.30;97.70;;;;;;5096657;28;19923;-79
2021/12/15 09:36:08;;;;;;;;;;;9.40;97.70;;;;;;5113538;28;20298;-80
2021/12/15 09:38:33;;;;;;;;;;;9.40;97.70;;;;;;5096117;28;19926;-81
2021/12/15 09:41:00;;;;;;;;;;;9.50;97.90;;;;;;5113421;28;20363;-79
2021/12/15 09:43:28;;;;;;;;;;;9.50;97.50;;;;;;5096437;28;19967;-79
2021/12/15 09:46:11;;;;;;;;;;;9.50;97.50;;;;;;5113522;28;20013;-78
2021/12/15 10:02:16;;;;;;;;;;;9.70;97.10;;;;;;5113026;28;19927;-79
2021/12/15 10:05:07;;;;;;;;;;;9.70;96.70;;;;;;5081274;28;19960;-78
2021/12/15 10:18:23;;;;;;;;;;;9.70;96.70;;;;;;5113223;28;20287;-79
2021/12/15 10:20:48;;;;;;;;;;;9.80;96.50;;;;;;5096027;28;19970;-81
2021/12/15 10:23:16;;;;;;;;;;;9.80;96.60;;;;;;5079389;28;19927;-79
2021/12/15 10:25:45;;;;;;;;;;;9.80;96.70;;;;;;5096215;28;19922;-79
2021/12/15 10:28:13;;;;;;;;;;;9.80;96.80;;;;;;5096048;28;19916;-80
2021/12/15 10:30:40;;;;;;;;;;;9.90;96.60;;;;;;5112853;28;19919;-79
2021/12/15 10:33:17;;;;;;;;;;;9.90;96.70;;;;;;5095938;28;19922;-80
2021/12/15 10:35:44;;;;;;;;;;;9.90;96.60;;;;;;5116061;28;19924;-79
2021/12/15 10:38:15;;;;;;;;;;;9.90;96.60;;;;;;5117194;28;19920;-80
2021/12/15 10:40:45;;;;;;;;;;;9.90;96.80;;;;;;5116976;28;20018;-80
2021/12/15 10:43:11;;;;;;;;;;;9.90;96.80;;;;;;5117209;28;20007;-79
2021/12/15 10:45:39;;;;;;;;;;;9.90;96.70;;;;;;5117047;28;20347;-80
2021/12/15 10:48:10;;;;;;;;;;;10.00;96.70;;;;;;5116963;28;19938;-79
2021/12/15 10:50:36;;;;;;;;;;;9.90;96.70;;;;;;5116969;28;19919;-80
2021/12/15 10:53:02;;;;;;;;;;;10.00;96.70;;;;;;5116657;28;19964;-79
2021/12/15 10:55:36;;;;;;;;;;;10.10;96.60;;;;;;5116701;28;20002;-79
2021/12/15 10:58:21;;;;;;;;;;;10.10;96.60;;;;;;5099564;28;19922;-78
2021/12/15 11:00:47;;;;;;;;;;;10.00;96.20;;;;;;5099346;28;19927;-80
2021/12/15 11:03:16;;;;;;;;;;;10.10;96.00;;;;;;5115993;28;19920;-81
2021/12/15 11:05:42;;;;;;;;;;;10.10;95.80;;;;;;5099028;28;19916;-81
2021/12/15 11:08:07;;;;;;;;;;;10.20;95.30;;;;;;5082377;28;19923;-80
2021/12/15 11:10:35;;;;;;;;;;;10.20;95.00;;;;;;5099560;28;20283;-81
2021/12/15 11:13:05;;;;;;;;;;;10.20;94.70;;;;;;5099578;28;19916;-80
2021/12/15 11:15:31;;;;;;;;;;;10.30;94.50;;;;;;5116548;28;19915;-81
2021/12/15 11:17:59;;;;;;;;;;;10.30;94.10;;;;;;5116565;28;20398;-80
2021/12/15 11:20:38;;;;;;;;;;;10.30;93.90;;;;;;5115959;28;20549;-80
2021/12/15 11:23:04;;;;;;;;;;;10.30;94.20;;;;;;5111488;28;20335;-78
2021/12/15 11:25:33;;;;;;;;;;;10.30;94.10;;;;;;5115914;28;19962;-79
2021/12/15 11:28:01;;;;;;;;;;;10.30;93.80;;;;;;5116042;28;19916;-79
2021/12/15 11:30:35;;;;;;;;;;;10.30;93.80;;;;;;5115932;28;19920;-79
2021/12/15 11:33:21;;;;;;;;;;;10.40;93.80;;;;;;5098857;28;19916;-79
2021/12/15 11:35:54;;;;;;;;;;;10.30;93.50;;;;;;5097803;28;19947;-79
2021/12/15 11:38:26;;;;;;;;;;;10.30;93.20;;;;;;5098559;28;19920;-80
2021/12/15 11:41:02;;;;;;;;;;;10.30;93.50;;;;;;5098733;28;19923;-79
2021/12/15 11:43:29;;;;;;;;;;;10.40;92.50;;;;;;5115715;28;19927;-79
2021/12/15 11:45:55;;;;;;;;;;;10.30;92.40;;;;;;5115872;28;20010;-80
2021/12/15 11:48:26;;;;;;;;;;;10.30;92.40;;;;;;5098609;28;20383;-80
2021/12/15 11:50:53;;;;;;;;;;;10.40;91.80;;;;;;5115750;28;19923;-78
2021/12/15 11:53:30;;;;;;;;;;;10.30;90.80;;;;;;5115704;28;19915;-80
2021/12/15 11:56:09;;;;;;;;;;;10.20;90.90;;;;;;5116129;28;20308;-79
2021/12/15 11:58:35;;;;;;;;;;;10.30;90.90;;;;;;5115574;28;20052;-80
2021/12/15 12:01:01;;;;;;;;;;;10.20;90.20;;;;;;5115891;28;19976;-79
2021/12/15 12:03:26;;;;;;;;;;;10.20;90.40;;;;;;5098627;28;19924;-78
2021/12/15 12:05:52;;;;;;;;;;;10.20;90.70;;;;;;5098380;28;19916;-80
2021/12/15 12:08:17;;;;;;;;;;;10.40;90.40;;;;;;5115076;28;19919;-78
2021/12/15 12:10:47;;;;;;;;;;;10.30;90.60;;;;;;5115526;28;19969;-80
2021/12/15 12:13:19;;;;;;;;;;;10.30;90.00;;;;;;5115459;28;19920;-79
2021/12/15 12:15:46;;;;;;;;;;;10.30;89.50;;;;;;5114798;28;20356;-79
2021/12/15 12:18:13;;;;;;;;;;;10.40;89.10;;;;;;5115429;28;19919;-78
2021/12/15 12:20:41;;;;;;;;;;;10.50;89.30;;;;;;5115055;28;20011;-80
2021/12/15 12:23:08;;;;;;;;;;;10.50;88.80;;;;;;5114846;28;19927;-80
2021/12/15 12:25:37;;;;;;;;;;;10.50;88.50;;;;;;5114915;28;20006;-79
2021/12/15 12:28:03;;;;;;;;;;;10.50;88.60;;;;;;5114898;28;19922;-81
2021/12/15 12:30:32;;;;;;;;;;;10.40;89.00;;;;;;5114654;28;19960;-80
2021/12/15 12:32:58;;;;;;;;;;;10.40;89.10;;;;;;5114697;28;19954;-79
2021/12/15 12:35:25;;;;;;;;;;;10.20;89.30;;;;;;5114619;28;19977;-79
2021/12/15 12:37:57;;;;;;;;;;;10.20;89.40;;;;;;5114714;28;20279;-79
2021/12/15 12:40:25;;;;;;;;;;;10.20;89.30;;;;;;5114671;28;19916;-79
2021/12/15 12:42:50;;;;;;;;;;;10.10;89.50;;;;;;5114438;28;19920;-79
2021/12/15 12:45:25;;;;;;;;;;;10.10;89.50;;;;;;5114433;28;19922;-79
2021/12/15 12:48:08;;;;;;;;;;;10.10;89.40;;;;;;5113131;28;19916;-79
2021/12/15 12:57:58;;;;;;;;;;;10.00;89.50;;;;;;5114210;28;19915;-79
2021/12/15 13:01:09;;;;;;;;;;;10.00;89.80;;;;;;5113731;28;19985;-79
2021/12/15 13:03:42;;;;;;;;;;;10.00;90.10;;;;;;5113598;28;19978;-80
2021/12/15 13:06:08;;;;;;;;;;;10.00;89.90;;;;;;5096479;28;19920;-78
2021/12/15 13:08:40;;;;;;;;;;;10.00;89.90;;;;;;5113595;28;19916;-79
2021/12/15 13:11:09;;;;;;;;;;;10.00;90.10;;;;;;5113832;28;20268;-80
2021/12/15 13:13:50;;;;;;;;;;;10.00;89.90;;;;;;5096817;28;19994;-79
2021/12/15 13:16:22;;;;;;;;;;;10.00;90.10;;;;;;5113595;28;19915;-78
2021/12/15 13:18:50;;;;;;;;;;;10.00;89.90;;;;;;5113703;28;19916;-79
2021/12/15 13:21:19;;;;;;;;;;;10.00;90.20;;;;;;5113210;28;19923;-79
2021/12/15 13:23:57;;;;;;;;;;;10.00;90.20;;;;;;5113641;28;19927;-79
2021/12/15 13:29:26;;;;;;;;;;;10.00;90.70;;;;;;5113671;28;19916;-79
2021/12/15 13:31:54;;;;;;;;;;;9.90;90.90;;;;;;5113537;28;19923;-80
2021/12/15 13:34:33;;;;;;;;;;;9.90;90.70;;;;;;5113503;28;19920;-78
2021/12/15 13:37:00;;;;;;;;;;;9.80;89.90;;;;;;5096590;28;20418;-79
2021/12/15 13:39:39;;;;;;;;;;;9.90;90.20;;;;;;5113106;28;20263;-78
2021/12/15 13:42:11;;;;;;;;;;;9.90;90.00;;;;;;5113281;28;20545;-80
2021/12/15 13:44:49;;;;;;;;;;;9.80;90.00;;;;;;5096685;28;19919;-79
2021/12/15 13:47:17;;;;;;;;;;;9.80;90.50;;;;;;5113446;28;20584;-81
2021/12/15 13:49:47;;;;;;;;;;;9.90;90.10;;;;;;5096652;28;20006;-81
2021/12/15 13:52:31;;;;;;;;;;;9.80;90.30;;;;;;5113352;27;19919;-81
2021/12/15 13:54:58;;;;;;;;;;;9.80;90.30;;;;;;5113423;28;19916;-80
2021/12/15 13:57:28;;;;;;;;;;;9.80;90.20;;;;;;5113584;28;19915;-78
2021/12/15 13:59:54;;;;;;;;;;;9.90;90.20;;;;;;5113600;28;19916;-79
2021/12/15 14:02:58;;;;;;;;;;;9.90;90.00;;;;;;5113559;28;19926;-79
2021/12/15 14:05:24;;;;;;;;;;;9.90;89.70;;;;;;5055171;28;19916;-82
2021/12/15 14:07:51;;;;;;;;;;;9.90;89.50;;;;;;5055118;28;19939;-79
2021/12/15 14:10:18;;;;;;;;;;;9.90;89.60;;;;;;5080295;28;20013;-79
2021/12/15 14:12:49;;;;;;;;;;;9.90;89.00;;;;;;5113382;28;19941;-79
2021/12/15 14:15:24;;;;;;;;;;;9.90;89.40;;;;;;5113082;28;19915;-80
2021/12/15 14:18:05;;;;;;;;;;;9.90;89.30;;;;;;5096159;28;20440;-79
2021/12/15 14:20:33;;;;;;;;;;;9.90;89.40;;;;;;5113141;28;19920;-79
2021/12/15 14:23:01;;;;;;;;;;;9.90;89.20;;;;;;5112693;28;19920;-78
2021/12/15 14:25:27;;;;;;;;;;;9.90;89.50;;;;;;5112969;28;19925;-79
2021/12/15 14:27:52;;;;;;;;;;;9.90;89.50;;;;;;5096369;28;20002;-79
2021/12/15 14:30:19;;;;;;;;;;;9.90;89.50;;;;;;5113515;28;19920;-78
2021/12/15 14:32:45;;;;;;;;;;;9.80;90.00;;;;;;5113618;28;19923;-79
2021/12/15 14:35:18;;;;;;;;;;;9.80;90.30;;;;;;5112978;28;19938;-78
2021/12/15 14:37:43;;;;;;;;;;;9.80;90.00;;;;;;5095980;28;19977;-79
2021/12/15 14:40:09;;;;;;;;;;;9.80;90.20;;;;;;5112995;28;19967;-78
2021/12/15 14:42:38;;;;;;;;;;;9.80;90.00;;;;;;5078906;28;19920;-77
2021/12/15 14:45:05;;;;;;;;;;;9.80;90.00;;;;;;5112843;28;19966;-78
2021/12/15 14:47:32;;;;;;;;;;;9.80;90.00;;;;;;5112837;28;19916;-79
2021/12/15 14:50:00;;;;;;;;;;;9.70;89.90;;;;;;5112653;28;19969;-78
2021/12/15 14:52:28;;;;;;;;;;;9.80;89.40;;;;;;5112816;28;19998;-78
2021/12/15 14:54:55;;;;;;;;;;;9.80;89.10;;;;;;5112935;28;19919;-78
2021/12/15 14:57:22;;;;;;;;;;;9.80;88.70;;;;;;5112941;28;20275;-78
2021/12/15 14:59:52;;;;;;;;;;;9.70;88.90;;;;;;5112641;28;20010;-79
2021/12/15 15:02:24;;;;;;;;;;;9.80;89.00;;;;;;5112607;28;19920;-78
2021/12/15 15:04:52;;;;;;;;;;;9.70;89.00;;;;;;5112847;28;19923;-78
2021/12/15 15:07:19;;;;;;;;;;;9.70;89.00;;;;;;5112695;28;19920;-78
2021/12/15 15:09:47;;;;;;;;;;;9.70;88.90;;;;;;5111932;28;19927;-78
2021/12/15 15:12:15;;;;;;;;;;;9.70;89.30;;;;;;5112770;28;19915;-77
2021/12/15 15:14:48;;;;;;;;;;;9.60;89.60;;;;;;5112450;28;19930;-78
2021/12/15 15:17:28;;;;;;;;;;;9.70;89.40;;;;;;5112600;28;19915;-79
2021/12/15 15:19:55;;;;;;;;;;;9.70;89.60;;;;;;5095419;28;20010;-78
2021/12/15 15:22:23;;;;;;;;;;;9.70;89.80;;;;;;5116044;28;19962;-79
2021/12/15 15:24:49;;;;;;;;;;;9.60;90.10;;;;;;5116173;28;20355;-78
2021/12/15 15:27:16;;;;;;;;;;;9.60;90.30;;;;;;5116880;28;20053;-77
2021/12/15 15:29:44;;;;;;;;;;;9.60;90.60;;;;;;5115820;28;19916;-78
2021/12/15 15:32:23;;;;;;;;;;;9.50;91.00;;;;;;5115984;28;19915;-79
2021/12/15 15:34:50;;;;;;;;;;;9.60;90.80;;;;;;5098402;28;19998;-78
2021/12/15 15:37:20;;;;;;;;;;;9.60;91.00;;;;;;5115651;28;19916;-79
2021/12/15 15:39:46;;;;;;;;;;;9.50;91.20;;;;;;5115258;28;19919;-79
2021/12/15 15:42:19;;;;;;;;;;;9.60;90.90;;;;;;5115477;28;19946;-78
2021/12/15 15:44:45;;;;;;;;;;;9.50;90.60;;;;;;5115280;28;19962;-78
2021/12/15 15:47:15;;;;;;;;;;;9.60;90.20;;;;;;5115396;28;19959;-78
2021/12/15 15:49:48;;;;;;;;;;;9.50;90.20;;;;;;5115195;28;19922;-79
2021/12/15 15:52:14;;;;;;;;;;;9.50;89.90;;;;;;5098192;28;19965;-80